NCAR-RAP Real-Time Weather Data

Output produced by METARs form (23 February 2020  01:51 UTC)
found at http://weather.rap.ucar.edu/surface/
 
KCVG 230052Z 18005KT 10SM CLR 03/M11 A3026 RMK AO2 SLP253 T00331106
KCVG 222352Z 19006KT 10SM FEW250 05/M12 A3026 RMK AO2 SLP254 T00501117 10094 20050 56010
KCVG 222252Z 19009KT 10SM CLR 07/M12 A3026 RMK AO2 SLP253 T00721122
KCVG 222152Z 20012G16KT 10SM CLR 09/M12 A3028 RMK AO2 SLP258 T00891122
KCVG 222052Z 20009KT 10SM CLR 09/M12 A3029 RMK AO2 SLP263 T00941117 56025
KCVG 221952Z 21010G16KT 10SM CLR 09/M10 A3031 RMK AO2 SLP267 T00891100
KCVG 221852Z 22009KT 180V240 10SM CLR 07/M11 A3033 RMK AO2 SLP276 T00721106
KCVG 221752Z 22008KT 10SM CLR 06/M09 A3037 RMK AO2 SLP288 T00611094 10061 21072 58023
KCVG 221652Z 18007KT 10SM CLR 04/M09 A3040 RMK AO2 SLP301 T00441094
KCVG 221552Z 20008KT 10SM CLR 02/M09 A3041 RMK AO2 SLP304 T00221089
KCVG 221452Z 21007KT 10SM CLR 01/M09 A3044 RMK AO2 SLP314 T00061089 50003
KCVG 221352Z 22004KT 10SM CLR M02/M09 A3045 RMK AO2 SLP318 T10221094
KCVG 221252Z 19004KT 10SM CLR M07/M11 A3043 RMK AO2 SLP313 T10671106
KCVG 221152Z 20005KT 10SM FEW200 M06/M12 A3043 RMK AO2 SLP312 T10611117 11033 21072 53007
KCVG 221052Z 20004KT 10SM CLR M07/M12 A3042 RMK AO2 SLP308 T10671117
KCVG 220952Z 21004KT 10SM CLR M06/M12 A3041 RMK AO2 SLP306 T10561117
KCVG 220852Z 21004KT 10SM CLR M06/M12 A3040 RMK AO2 SLP304 T10561117 56009
KCVG 220752Z 19005KT 10SM CLR M06/M12 A3041 RMK AO2 SLP305 T10561122
KCVG 220652Z 20006KT 10SM CLR M04/M13 A3042 RMK AO2 SLP309 T10441128
KCVG 220552Z 21007KT 10SM CLR M03/M13 A3043 RMK AO2 SLP313 T10331128 10006 21050 56014
KCVG 220452Z 20005KT 10SM CLR M04/M12 A3045 RMK AO2 SLP319 T10441122 400331089
KCVG 220352Z 19005KT 10SM CLR M04/M12 A3046 RMK AO2 SLP324 T10391117
KCVG 220252Z 18005KT 10SM CLR M03/M14 A3048 RMK AO2 SLP330 T10281139 58012
KCVG 220152Z 23004KT 10SM CLR M01/M14 A3049 RMK AO2 SLP336 T10111144
KCVG 220052Z 22004KT 10SM CLR M01/M14 A3050 RMK AO2 SLP339 T10111139
KCVG 212352Z 20005KT 10SM CLR 00/M14 A3051 RMK AO2 SLP342 T00001139 10033 21006 56008
KCVG 212252Z 25004KT 10SM CLR 02/M15 A3052 RMK AO2 SLP343 T00171150
KCVG 212152Z 28007KT 10SM CLR 03/M17 A3052 RMK AO2 SLP344 T00281167
KCVG 212052Z 28006KT 10SM CLR 03/M16 A3054 RMK AO2 SLP349 T00281156 56027
KCVG 211952Z VRB04KT 10SM CLR 01/M15 A3055 RMK AO2 SLP355 T00111150
KCVG 211852Z 00000KT 10SM CLR 01/M14 A3059 RMK AO2 SLP367 T00111139
KCVG 211752Z VRB06KT 10SM CLR 00/M15 A3062 RMK AO2 SLP378 T00001150 10000 21089 58012
KCVG 211652Z 26006KT 10SM CLR M02/M12 A3064 RMK AO2 SLP385 T10171122
KCVG 211552Z 27004KT 10SM CLR M03/M12 A3065 RMK AO2 SLP390 T10331117
KCVG 211452Z 00000KT 10SM CLR M05/M11 A3065 RMK AO2 SLP391 T10501111 51015
KCVG 211352Z 34006KT 10SM CLR M07/M11 A3065 RMK AO2 SLP390 T10671106
KCVG 211252Z 33003KT 10SM CLR M08/M11 A3062 RMK AO2 SLP381 T10831111
KCVG 211152Z 01005KT 10SM CLR M08/M12 A3061 RMK AO2 SLP375 T10831117 11067 21083 53007
KCVG 211052Z 33006KT 10SM CLR M08/M11 A3060 RMK AO2 SLP372 T10781111
KCVG 210952Z 34007KT 10SM CLR M08/M12 A3059 RMK AO2 SLP368 T10831117
KCVG 210852Z 34008KT 10SM CLR M07/M12 A3058 RMK AO2 SLP367 T10721117 58003
KCVG 210752Z 33006KT 10SM CLR M08/M12 A3059 RMK AO2 SLP369 T10781117
KCVG 210652Z 34006KT 10SM CLR M07/M12 A3060 RMK AO2 SLP370 T10721117
KCVG 210552Z 34006KT 10SM CLR M07/M12 A3059 RMK AO2 SLP369 T10671117 11033 21067 50002
KCVG 210452Z 34006KT 10SM CLR M06/M12 A3060 RMK AO2 SLP371 T10611122 400111067
KCVG 210352Z 36006KT 10SM CLR M06/M12 A3060 RMK AO2 SLP371 T10611122
KCVG 210252Z 01007KT 10SM CLR M06/M12 A3059 RMK AO2 SLP367 T10561122 51013
KCVG 210152Z 36010KT 10SM CLR M05/M12 A3058 RMK AO2 SLP365 T10501122